Terminal Aerodrome Forecast
Issued by NWS

Home | Current Version | Previous Version | Text Only | Print | Product List | Glossary On
Versions: 1 2 3 4 5 6 7 8 9 10 11 12 13
439
FTUS44 KCRP 271128
TAFLRD
TAF
KLRD 271128Z 2712/2812 13008KT P6SM VCSH FEW025
     FM271800 14012G20KT P6SM BKN045
     FM280000 13012KT P6SM SCT060=

USA.gov is the U.S. government's official web portal to all federal, state and local government web resources and services.